createdAt,value
2019-04-07T00:00:07.431Z,59.62
2019-04-07T00:01:07.161Z,60.26
2019-04-07T00:02:07.415Z,60.26
2019-04-07T00:03:07.071Z,60.36
2019-04-07T00:04:07.601Z,60.49
2019-04-07T00:05:12.365Z,60.69
2019-04-07T00:06:07.497Z,60.80
2019-04-07T00:07:06.989Z,60.69
2019-04-07T00:08:06.932Z,60.60
2019-04-07T00:09:07.077Z,60.90
2019-04-07T00:10:07.151Z,60.80
2019-04-07T00:11:06.840Z,61.10
2019-04-07T00:12:07.097Z,61.00
2019-04-07T00:13:07.116Z,61.10
2019-04-07T00:14:07.086Z,61.10
2019-04-07T00:15:06.976Z,61.13
2019-04-07T00:16:07.199Z,61.24
2019-04-07T00:17:06.705Z,61.13
2019-04-07T00:18:06.698Z,61.03
2019-04-07T00:19:06.682Z,61.34
2019-04-07T00:20:07.277Z,61.54
2019-04-07T00:21:06.647Z,61.85
2019-04-07T00:22:06.534Z,61.54
2019-04-07T00:23:06.507Z,61.95
2019-04-07T00:24:06.461Z,62.18
2019-04-07T00:25:06.428Z,62.49
2019-04-07T00:26:06.432Z,62.29
2019-04-07T00:27:06.906Z,62.93
2019-04-07T00:28:06.341Z,63.03
2019-04-07T00:29:06.300Z,63.24
2019-04-07T00:30:06.580Z,63.24
2019-04-07T00:31:06.246Z,62.52
2019-04-07T00:32:06.244Z,63.88
2019-04-07T00:33:06.359Z,64.09
2019-04-07T00:34:06.978Z,64.09
2019-04-07T00:35:06.125Z,64.29
2019-04-07T00:36:06.092Z,64.39
2019-04-07T00:37:06.099Z,64.29
2019-04-07T00:38:06.039Z,64.50
2019-04-07T00:39:06.014Z,64.29
2019-04-07T00:40:06.908Z,64.50
2019-04-07T00:41:05.939Z,63.98
2019-04-07T00:42:05.933Z,63.88
2019-04-07T00:43:05.883Z,64.80
2019-04-07T00:44:06.162Z,64.90
2019-04-07T00:45:06.132Z,65.01
2019-04-07T00:46:06.305Z,65.45
2019-04-07T00:47:06.328Z,65.14
2019-04-07T00:48:05.820Z,65.14
2019-04-07T00:49:05.701Z,65.86
2019-04-07T00:50:05.671Z,66.06
2019-04-07T00:51:05.655Z,65.75
2019-04-07T00:52:06.156Z,65.78
2019-04-07T00:53:05.698Z,66.16
2019-04-07T00:54:06.129Z,66.40
2019-04-07T00:55:05.520Z,66.40
2019-04-07T00:56:05.529Z,66.09
2019-04-07T00:57:05.493Z,66.12
2019-04-07T00:58:06.163Z,66.71
2019-04-07T00:59:05.419Z,67.35
2019-04-07T01:00:05.899Z,67.14
2019-04-07T01:01:05.375Z,66.94
2019-04-07T01:02:05.851Z,67.25
2019-04-07T01:03:05.291Z,66.74
2019-04-07T01:04:05.669Z,67.46
2019-04-07T01:05:05.222Z,67.14
2019-04-07T01:06:06.474Z,67.59
2019-04-07T01:07:05.325Z,67.46
2019-04-07T01:08:05.243Z,67.59
2019-04-07T01:09:05.098Z,67.76
2019-04-07T01:10:05.137Z,67.38
2019-04-07T01:11:05.633Z,68.00
2019-04-07T01:12:05.045Z,67.59
2019-04-07T01:13:05.418Z,67.25
2019-04-07T01:14:04.952Z,67.49
2019-04-07T01:15:04.914Z,67.59
2019-04-07T01:16:04.922Z,67.28
2019-04-07T01:17:04.851Z,67.18
2019-04-07T01:18:05.361Z,67.79
2019-04-07T01:19:04.792Z,67.90
2019-04-07T01:20:05.236Z,67.69
2019-04-07T01:21:04.852Z,67.79
2019-04-07T01:22:05.363Z,68.21
2019-04-07T01:23:04.768Z,68.00
2019-04-07T01:24:04.637Z,67.79
2019-04-07T01:25:04.989Z,68.30
2019-04-07T01:26:04.729Z,68.10
2019-04-07T01:27:05.048Z,68.65
2019-04-07T01:28:04.540Z,68.65
2019-04-07T01:29:04.628Z,68.51
2019-04-07T01:30:04.744Z,68.85
2019-04-07T01:31:04.423Z,68.65
2019-04-07T01:32:04.856Z,69.06
2019-04-07T01:33:04.386Z,69.26
2019-04-07T01:34:04.400Z,68.88
2019-04-07T01:35:04.752Z,68.96
2019-04-07T01:36:04.271Z,69.19
2019-04-07T01:37:04.463Z,69.40
2019-04-07T01:38:04.909Z,69.06
2019-04-07T01:39:04.177Z,68.68
2019-04-07T01:40:04.517Z,68.85
2019-04-07T01:41:04.782Z,69.09
2019-04-07T01:42:04.087Z,68.96
2019-04-07T01:43:04.275Z,69.29
2019-04-07T01:44:04.743Z,69.29
2019-04-07T01:45:03.993Z,69.40
2019-04-07T01:46:03.966Z,69.29
2019-04-07T01:47:04.656Z,69.09
2019-04-07T01:48:03.931Z,69.19
2019-04-07T01:49:03.877Z,69.09
2019-04-07T01:50:03.841Z,69.40
2019-04-07T01:51:04.367Z,69.60
2019-04-07T01:52:04.218Z,69.29
2019-04-07T01:53:03.771Z,69.50
2019-04-07T01:54:03.747Z,69.70
2019-04-07T01:55:03.791Z,69.74
2019-04-07T01:56:03.654Z,70.01
2019-04-07T01:57:03.626Z,69.74
2019-04-07T01:58:04.112Z,70.15
2019-04-07T01:59:03.723Z,70.25
2019-04-07T02:00:03.532Z,70.15
2019-04-07T02:01:03.496Z,70.01
2019-04-07T02:02:03.551Z,69.64
2019-04-07T02:03:03.485Z,70.01
2019-04-07T02:04:03.928Z,69.91
2019-04-07T02:05:03.464Z,69.50
2019-04-07T02:06:04.983Z,70.22
2019-04-07T02:07:03.945Z,70.04
2019-04-07T02:08:03.288Z,69.94
2019-04-07T02:09:03.325Z,70.04
2019-04-07T02:10:03.224Z,70.04
2019-04-07T02:11:03.202Z,70.04
2019-04-07T02:12:03.421Z,69.94
2019-04-07T02:13:03.245Z,70.15
2019-04-07T02:14:03.694Z,70.15
2019-04-07T02:15:03.101Z,70.25
2019-04-07T02:16:03.731Z,70.15
2019-04-07T02:17:03.002Z,70.25
2019-04-07T02:18:03.599Z,70.25
2019-04-07T02:19:03.595Z,70.36
2019-04-07T02:20:03.658Z,70.25
2019-04-07T02:21:03.369Z,70.15
2019-04-07T02:22:02.858Z,69.94
2019-04-07T02:23:02.882Z,69.64
2019-04-07T02:24:02.822Z,69.70
2019-04-07T02:25:02.753Z,69.60
2019-04-07T02:26:03.528Z,69.70
2019-04-07T02:27:02.697Z,69.53
2019-04-07T02:28:03.370Z,69.29
2019-04-07T02:29:02.727Z,69.53
2019-04-07T02:30:03.706Z,69.50
2019-04-07T02:31:02.699Z,69.50
2019-04-07T02:32:03.514Z,68.99
2019-04-07T02:33:02.609Z,69.09
2019-04-07T02:34:03.156Z,69.09
2019-04-07T02:35:03.553Z,68.78
2019-04-07T02:36:15.588Z,68.99
2019-04-07T02:37:03.227Z,68.68
2019-04-07T02:38:02.376Z,68.99
2019-04-07T02:39:02.790Z,69.19
2019-04-07T02:40:03.504Z,69.09
2019-04-07T02:41:02.262Z,69.19
2019-04-07T02:42:02.435Z,69.50
2019-04-07T02:43:03.013Z,69.29
2019-04-07T02:44:02.828Z,69.43
2019-04-07T02:45:02.185Z,69.53
2019-04-07T02:46:02.581Z,69.50
2019-04-07T02:47:02.965Z,69.23
2019-04-07T02:48:02.757Z,69.53
2019-04-07T02:49:02.040Z,69.74
2019-04-07T02:50:03.269Z,69.74
2019-04-07T02:51:01.948Z,69.74
2019-04-07T02:52:02.480Z,70.04
2019-04-07T02:53:02.071Z,69.94
2019-04-07T02:54:02.532Z,69.74
2019-04-07T02:55:02.586Z,70.15
2019-04-07T02:56:02.102Z,70.08
2019-04-07T02:57:02.413Z,70.04
2019-04-07T02:58:02.816Z,70.18
2019-04-07T02:59:01.917Z,70.46
2019-04-07T03:00:01.749Z,70.39
2019-04-07T03:01:02.003Z,70.46
2019-04-07T03:02:01.616Z,70.59
2019-04-07T03:03:01.710Z,70.56
2019-04-07T03:04:01.911Z,70.56
2019-04-07T03:05:02.165Z,70.70
2019-04-07T03:06:01.941Z,70.56
2019-04-07T03:07:01.462Z,71.00
2019-04-07T03:08:01.661Z,70.90
2019-04-07T03:09:01.726Z,71.00
2019-04-07T03:10:02.703Z,71.21
2019-04-07T03:11:02.035Z,71.11
2019-04-07T03:12:01.684Z,71.04
2019-04-07T03:13:01.272Z,71.11
2019-04-07T03:14:01.236Z,71.24
2019-04-07T03:15:01.204Z,71.24
2019-04-07T03:16:01.952Z,71.14
2019-04-07T03:17:02.208Z,71.14
2019-04-07T03:18:01.116Z,71.24
2019-04-07T03:19:01.849Z,71.45
2019-04-07T03:20:01.059Z,71.55
2019-04-07T03:21:01.196Z,71.75
2019-04-07T03:22:01.169Z,71.86
2019-04-07T03:23:01.176Z,71.75
2019-04-07T03:24:00.941Z,71.75
2019-04-07T03:25:00.888Z,72.06
2019-04-07T03:26:00.939Z,71.55
2019-04-07T03:27:00.932Z,71.45
2019-04-07T03:28:00.801Z,71.45
2019-04-07T03:29:01.317Z,71.51
2019-04-07T03:30:00.991Z,71.45
2019-04-07T03:31:02.087Z,71.14
2019-04-07T03:32:00.693Z,71.66
2019-04-07T03:33:02.957Z,71.45
2019-04-07T03:34:03.058Z,71.45
2019-04-07T03:35:01.033Z,71.96
2019-04-07T03:36:02.888Z,72.47
2019-04-07T03:37:18.295Z,72.09
2019-04-07T03:38:00.900Z,72.92
2019-04-07T03:39:00.922Z,72.51
2019-04-07T03:40:00.890Z,72.51
2019-04-07T03:41:00.448Z,73.23
2019-04-07T03:42:01.074Z,73.54
2019-04-07T03:43:00.318Z,73.64
2019-04-07T03:44:01.207Z,73.26
2019-04-07T03:45:00.782Z,73.44
2019-04-07T03:46:00.346Z,73.44
2019-04-07T03:47:01.404Z,73.13
2019-04-07T03:48:00.683Z,72.54
2019-04-07T03:49:00.159Z,72.92
2019-04-07T03:50:00.129Z,73.44
2019-04-07T03:51:01.295Z,73.02
2019-04-07T03:52:00.041Z,73.23
2019-04-07T03:53:00.022Z,73.33
2019-04-07T03:54:00.649Z,73.78
2019-04-07T03:54:59.989Z,73.68
2019-04-07T03:55:59.963Z,73.68
2019-04-07T03:57:00.446Z,73.47
2019-04-07T03:58:00.183Z,74.08
2019-04-07T03:58:59.945Z,74.40
2019-04-07T04:00:00.574Z,74.02
2019-04-07T04:01:00.561Z,74.95
2019-04-07T04:02:00.204Z,74.63
2019-04-07T04:03:00.383Z,74.74
2019-04-07T04:04:00.605Z,75.29
2019-04-07T04:04:59.967Z,75.29
2019-04-07T04:05:59.665Z,75.39
2019-04-07T04:07:00.152Z,75.29
2019-04-07T04:07:59.534Z,75.49
2019-04-07T04:08:59.509Z,75.39
2019-04-07T04:09:59.772Z,75.18
2019-04-07T04:11:00.028Z,75.18
2019-04-07T04:11:59.904Z,75.18
2019-04-07T04:12:59.381Z,75.08
2019-04-07T04:13:59.350Z,75.60
2019-04-07T04:15:00.263Z,75.29
2019-04-07T04:15:59.279Z,75.81
2019-04-07T04:16:59.279Z,75.81
2019-04-07T04:17:59.218Z,76.66
2019-04-07T04:19:00.038Z,76.42
2019-04-07T04:19:59.155Z,76.56
2019-04-07T04:20:59.625Z,76.32
2019-04-07T04:21:59.126Z,76.35
2019-04-07T04:22:59.746Z,76.15
2019-04-07T04:23:59.131Z,76.66
2019-04-07T04:24:59.460Z,76.66
2019-04-07T04:25:59.089Z,76.87
2019-04-07T04:26:59.198Z,76.01
2019-04-07T04:27:59.229Z,76.01
2019-04-07T04:28:59.780Z,76.01
2019-04-07T04:29:58.841Z,76.53
2019-04-07T04:30:58.820Z,76.21
2019-04-07T04:31:59.695Z,76.21
2019-04-07T04:32:59.714Z,75.73
2019-04-07T04:33:58.714Z,76.15
2019-04-07T04:34:59.468Z,76.25
2019-04-07T04:35:59.088Z,76.11
2019-04-07T04:36:59.627Z,75.70
2019-04-07T04:37:59.643Z,76.15
2019-04-07T04:38:59.122Z,76.11
2019-04-07T04:39:59.507Z,75.73
2019-04-07T04:40:58.494Z,75.81
2019-04-07T04:41:58.465Z,76.11
2019-04-07T04:42:58.486Z,76.11
2019-04-07T04:43:58.407Z,76.21
2019-04-07T04:44:58.876Z,76.32
2019-04-07T04:45:58.335Z,76.53
2019-04-07T04:46:58.450Z,76.11
2019-04-07T04:47:58.295Z,75.81
2019-04-07T04:48:58.913Z,75.60
2019-04-07T04:49:58.209Z,75.60
2019-04-07T04:50:58.200Z,75.60
2019-04-07T04:51:58.668Z,75.60
2019-04-07T04:52:58.145Z,75.60
2019-04-07T04:53:58.400Z,75.46
2019-04-07T04:54:58.045Z,75.29
2019-04-07T04:55:58.914Z,75.29
2019-04-07T04:56:58.867Z,75.25
2019-04-07T04:57:57.976Z,75.15
2019-04-07T04:58:58.477Z,75.25
2019-04-07T04:59:58.046Z,74.91
2019-04-07T05:00:58.107Z,74.50
2019-04-07T05:01:57.879Z,74.08
2019-04-07T05:02:58.170Z,73.26
2019-04-07T05:03:58.406Z,73.54
2019-04-07T05:04:57.725Z,73.23
2019-04-07T05:05:57.793Z,73.74
2019-04-07T05:06:58.080Z,73.64
2019-04-07T05:08:03.334Z,73.64
2019-04-07T05:08:57.769Z,73.95
2019-04-07T05:09:57.570Z,73.44
2019-04-07T05:10:57.641Z,73.47
2019-04-07T05:11:57.552Z,73.23
2019-04-07T05:12:57.503Z,73.33
2019-04-07T05:13:58.125Z,73.57
2019-04-07T05:14:57.417Z,73.54
2019-04-07T05:15:57.384Z,73.33
2019-04-07T05:16:57.379Z,73.23
2019-04-07T05:17:57.385Z,73.33
2019-04-07T05:18:57.376Z,73.44
2019-04-07T05:19:57.690Z,73.44
2019-04-07T05:20:57.514Z,73.33
2019-04-07T05:21:57.189Z,72.99
2019-04-07T05:22:57.613Z,73.50
2019-04-07T05:23:57.156Z,73.71
2019-04-07T05:24:57.580Z,73.61
2019-04-07T05:25:57.066Z,73.64
2019-04-07T05:26:57.326Z,73.33
2019-04-07T05:27:57.086Z,73.33
2019-04-07T05:28:57.092Z,73.61
2019-04-07T05:29:56.947Z,73.13
2019-04-07T05:30:56.991Z,73.23
2019-04-07T05:31:56.873Z,73.23
2019-04-07T05:32:57.455Z,73.13
2019-04-07T05:33:57.463Z,73.23
2019-04-07T05:34:56.805Z,73.71
2019-04-07T05:35:56.746Z,73.30
2019-04-07T05:36:56.720Z,73.50
2019-04-07T05:38:02.767Z,72.89
2019-04-07T05:38:57.445Z,73.19
2019-04-07T05:39:56.633Z,72.89
2019-04-07T05:40:56.590Z,73.50
2019-04-07T05:41:56.558Z,73.13
2019-04-07T05:42:56.530Z,73.74
2019-04-07T05:43:56.969Z,73.33
2019-04-07T05:44:56.468Z,73.09
2019-04-07T05:45:56.438Z,73.30
2019-04-07T05:46:56.979Z,72.89
2019-04-07T05:47:56.447Z,72.99
2019-04-07T05:48:56.673Z,72.47
2019-04-07T05:49:58.774Z,72.58
2019-04-07T05:51:00.509Z,72.68
2019-04-07T05:51:56.641Z,72.65
2019-04-07T05:52:56.544Z,72.24
2019-04-07T05:53:56.212Z,71.83
2019-04-07T05:54:56.288Z,71.93
2019-04-07T05:55:56.279Z,72.34
2019-04-07T05:56:58.734Z,72.13
2019-04-07T05:57:56.065Z,72.13
2019-04-07T05:58:56.077Z,72.24
2019-04-07T05:59:56.012Z,72.34
2019-04-07T06:00:56.912Z,72.20
2019-04-07T06:02:00.676Z,72.10
2019-04-07T06:02:56.060Z,72.03
2019-04-07T06:03:56.606Z,72.72
2019-04-07T06:04:58.473Z,72.00
2019-04-07T06:05:56.126Z,71.89
2019-04-07T06:06:56.356Z,72.20
2019-04-07T06:07:55.895Z,71.79
2019-04-07T06:08:55.819Z,71.66
2019-04-07T06:09:55.742Z,71.45
2019-04-07T06:11:00.191Z,71.25
2019-04-07T06:11:55.634Z,71.01
2019-04-07T06:12:56.437Z,70.80
2019-04-07T06:13:55.629Z,70.90
2019-04-07T06:14:56.346Z,71.01
2019-04-07T06:15:55.610Z,70.90
2019-04-07T06:16:55.909Z,70.36
2019-04-07T06:17:58.807Z,70.26
2019-04-07T06:18:55.572Z,70.26
2019-04-07T06:19:55.756Z,69.95
2019-04-07T06:20:55.357Z,70.32
2019-04-07T06:21:55.326Z,70.64
2019-04-07T06:22:55.295Z,69.92
2019-04-07T06:23:58.561Z,70.02
2019-04-07T06:24:55.985Z,69.78
2019-04-07T06:25:57.334Z,69.40
2019-04-07T06:26:55.182Z,68.86
2019-04-07T06:27:55.148Z,69.17
2019-04-07T06:28:58.429Z,69.03
2019-04-07T06:29:59.582Z,68.73
2019-04-07T06:30:55.054Z,67.90
2019-04-07T06:31:55.040Z,67.57
2019-04-07T06:32:55.441Z,68.08
2019-04-07T06:33:55.218Z,68.18
2019-04-07T06:34:55.165Z,67.05
2019-04-07T06:35:55.957Z,66.31
2019-04-07T06:36:56.275Z,66.31
2019-04-07T06:37:57.658Z,65.80
2019-04-07T06:38:54.838Z,65.56
2019-04-07T06:39:54.860Z,65.77
2019-04-07T06:40:57.802Z,65.36
2019-04-07T06:41:54.725Z,65.46
2019-04-07T06:42:54.689Z,65.33
2019-04-07T06:44:08.223Z,65.22
2019-04-07T06:44:55.373Z,65.53
2019-04-07T06:45:55.023Z,65.33
2019-04-07T06:46:58.556Z,65.02
2019-04-07T06:47:55.241Z,63.89
2019-04-07T06:48:55.112Z,63.89
2019-04-07T06:49:54.505Z,64.17
2019-04-07T06:50:58.296Z,64.27
2019-04-07T06:51:54.536Z,64.27
2019-04-07T06:52:54.394Z,64.27
2019-04-07T06:53:54.361Z,64.27
2019-04-07T06:54:56.208Z,63.86
2019-04-07T06:55:58.390Z,63.96
2019-04-07T06:56:54.273Z,63.83
2019-04-07T06:57:54.246Z,64.14
2019-04-07T06:58:54.760Z,64.75
2019-04-07T06:59:54.205Z,64.11
2019-04-07T07:00:55.963Z,62.99
2019-04-07T07:01:58.150Z,62.88
2019-04-07T07:02:54.396Z,63.09
2019-04-07T07:03:54.083Z,62.99
2019-04-07T07:04:54.065Z,63.09
2019-04-07T07:05:54.006Z,63.26
2019-04-07T07:06:53.994Z,62.65
2019-04-07T07:07:54.213Z,62.45
2019-04-07T07:08:56.410Z,62.55
2019-04-07T07:09:56.658Z,63.26
2019-04-07T07:10:54.207Z,62.65
2019-04-07T07:11:54.011Z,62.76
2019-04-07T07:12:53.804Z,62.11
2019-04-07T07:13:54.118Z,61.71
2019-04-07T07:14:53.895Z,61.19
2019-04-07T07:15:54.010Z,61.80
2019-04-07T07:16:54.461Z,60.89
2019-04-07T07:17:56.135Z,61.07
2019-04-07T07:18:54.664Z,60.96
2019-04-07T07:19:56.587Z,61.16
2019-04-07T07:20:53.852Z,61.16
2019-04-07T07:21:53.543Z,61.44
2019-04-07T07:22:53.509Z,61.07
2019-04-07T07:23:53.482Z,60.76
2019-04-07T07:24:57.754Z,61.04
2019-04-07T07:25:53.450Z,60.73
2019-04-07T07:26:53.943Z,60.63
2019-04-07T07:27:53.416Z,60.83
2019-04-07T07:28:53.343Z,60.39
2019-04-07T07:29:53.971Z,60.30
2019-04-07T07:30:53.712Z,60.19
2019-04-07T07:31:59.733Z,60.09
2019-04-07T07:32:53.232Z,60.06
2019-04-07T07:33:53.972Z,59.68
2019-04-07T07:34:53.165Z,59.55
2019-04-07T07:35:53.664Z,59.25
2019-04-07T07:36:56.589Z,59.25
2019-04-07T07:37:53.645Z,59.45
2019-04-07T07:38:59.993Z,59.42
2019-04-07T07:39:53.026Z,59.32
2019-04-07T07:40:53.018Z,59.83
2019-04-07T07:41:53.089Z,59.12
2019-04-07T07:42:55.458Z,58.51
2019-04-07T07:43:53.524Z,57.97
2019-04-07T07:44:53.515Z,59.80
2019-04-07T07:45:52.873Z,58.17
2019-04-07T07:46:52.876Z,58.38
2019-04-07T07:47:54.095Z,58.38
2019-04-07T07:48:57.117Z,58.17
2019-04-07T07:49:52.754Z,57.84
2019-04-07T07:50:53.649Z,57.43
2019-04-07T07:51:52.795Z,57.54
2019-04-07T07:52:54.638Z,56.12
2019-04-07T07:53:52.740Z,57.31
2019-04-07T07:54:52.994Z,57.10
2019-04-07T07:55:53.029Z,57.51
2019-04-07T07:56:52.601Z,56.49
2019-04-07T07:57:56.756Z,56.09
2019-04-07T07:58:53.007Z,56.70
2019-04-07T07:59:52.462Z,55.96
2019-04-07T08:00:52.556Z,56.47
2019-04-07T08:01:52.651Z,56.06
2019-04-07T08:02:53.488Z,56.44
2019-04-07T08:03:55.154Z,55.93
2019-04-07T08:04:56.539Z,56.04
2019-04-07T08:05:52.413Z,55.80
2019-04-07T08:06:52.299Z,54.49
2019-04-07T08:07:52.259Z,54.49
2019-04-07T08:08:52.613Z,54.77
2019-04-07T08:09:54.356Z,54.49
2019-04-07T08:10:56.193Z,54.36
2019-04-07T08:11:52.719Z,54.26
2019-04-07T08:12:52.104Z,54.05
2019-04-07T08:13:52.516Z,54.26
2019-04-07T08:14:55.260Z,53.93
2019-04-07T08:15:52.018Z,53.83
2019-04-07T08:16:55.458Z,53.93
2019-04-07T08:17:52.103Z,52.92
2019-04-07T08:18:52.130Z,53.63
2019-04-07T08:19:52.390Z,53.60
2019-04-07T08:20:52.222Z,53.63
2019-04-07T08:21:52.030Z,53.02
2019-04-07T08:22:51.824Z,53.50
2019-04-07T08:23:52.417Z,52.18
2019-04-07T08:24:52.051Z,52.18
2019-04-07T08:25:54.530Z,53.09
2019-04-07T08:26:54.035Z,53.09
2019-04-07T08:27:51.693Z,52.39
2019-04-07T08:28:53.213Z,52.26
2019-04-07T08:29:51.634Z,52.36
2019-04-07T08:30:51.620Z,52.15
2019-04-07T08:31:55.100Z,52.36
2019-04-07T08:32:51.561Z,51.86
2019-04-07T08:33:52.584Z,51.65
2019-04-07T08:34:51.516Z,51.75
2019-04-07T08:35:54.222Z,51.83
2019-04-07T08:36:51.934Z,51.93
2019-04-07T08:37:51.417Z,51.42
2019-04-07T08:38:53.983Z,51.02
2019-04-07T08:39:51.957Z,50.31
2019-04-07T08:40:53.997Z,50.69
2019-04-07T08:41:51.811Z,51.40
2019-04-07T08:42:52.138Z,51.09
2019-04-07T08:43:55.444Z,50.09
2019-04-07T08:44:51.895Z,50.49
2019-04-07T08:45:51.478Z,50.29
2019-04-07T08:46:51.844Z,50.57
2019-04-07T08:47:52.500Z,49.66
2019-04-07T08:48:53.593Z,50.06
2019-04-07T08:49:51.442Z,49.73
2019-04-07T08:50:51.756Z,49.35
2019-04-07T08:51:51.068Z,49.93
2019-04-07T08:52:51.058Z,49.73
2019-04-07T08:53:51.723Z,49.22
2019-04-07T08:54:52.690Z,49.13
2019-04-07T08:55:54.229Z,48.93
2019-04-07T08:56:50.934Z,49.91
2019-04-07T08:57:51.596Z,49.02
2019-04-07T08:58:51.068Z,49.22
2019-04-07T08:59:51.379Z,49.21
2019-04-07T09:00:52.653Z,48.39
2019-04-07T09:01:52.747Z,48.30
2019-04-07T09:03:01.753Z,47.89
2019-04-07T09:03:50.800Z,47.49
2019-04-07T09:04:52.307Z,47.39
2019-04-07T09:05:51.383Z,47.31
2019-04-07T09:06:50.754Z,47.19
2019-04-07T09:07:50.716Z,47.28
2019-04-07T09:08:51.046Z,47.59
2019-04-07T09:09:51.401Z,47.26
2019-04-07T09:10:51.022Z,47.79
2019-04-07T09:11:53.919Z,47.16
2019-04-07T09:12:50.993Z,47.06
2019-04-07T09:13:50.478Z,47.16
2019-04-07T09:14:51.312Z,47.06
2019-04-07T09:15:50.437Z,46.86
2019-04-07T09:16:53.279Z,46.64
2019-04-07T09:17:50.359Z,46.84
2019-04-07T09:18:54.995Z,46.94
2019-04-07T09:19:50.856Z,47.04
2019-04-07T09:20:50.634Z,45.62
2019-04-07T09:21:51.702Z,45.53
2019-04-07T09:22:53.288Z,45.73
2019-04-07T09:23:50.706Z,46.33
2019-04-07T09:24:50.810Z,46.61
2019-04-07T09:25:50.209Z,46.21
2019-04-07T09:26:51.073Z,45.53
2019-04-07T09:27:51.000Z,45.70
2019-04-07T09:28:53.398Z,45.93
2019-04-07T09:29:50.078Z,45.32
2019-04-07T09:30:50.032Z,45.73
2019-04-07T09:31:50.788Z,45.32
2019-04-07T09:32:50.013Z,45.62
2019-04-07T09:33:49.979Z,46.64
2019-04-07T09:34:52.870Z,45.83
2019-04-07T09:35:49.926Z,45.73
2019-04-07T09:36:51.259Z,45.61
2019-04-07T09:37:53.316Z,45.50
2019-04-07T09:38:50.242Z,46.11
2019-04-07T09:39:56.966Z,45.48
2019-04-07T09:40:50.555Z,45.48
2019-04-07T09:41:52.741Z,44.78
2019-04-07T09:42:49.746Z,43.57
2019-04-07T09:43:49.773Z,43.77
2019-04-07T09:44:49.671Z,43.69
2019-04-07T09:45:49.754Z,44.29
2019-04-07T09:46:51.095Z,43.57
2019-04-07T09:47:49.595Z,43.66
2019-04-07T09:48:52.262Z,43.77
2019-04-07T09:49:50.379Z,43.16
2019-04-07T09:50:49.574Z,43.37
2019-04-07T09:51:49.574Z,44.27
2019-04-07T09:52:49.587Z,43.16
2019-04-07T09:53:50.720Z,43.87
2019-04-07T09:54:51.837Z,43.97
2019-04-07T09:55:49.394Z,44.27
2019-04-07T09:56:49.691Z,42.94
2019-04-07T09:57:50.610Z,43.85
2019-04-07T09:58:50.239Z,44.15
2019-04-07T09:59:52.133Z,43.65
2019-04-07T10:00:51.261Z,43.32
2019-04-07T10:01:49.316Z,42.92
2019-04-07T10:02:49.244Z,42.84
2019-04-07T10:03:49.999Z,43.54
2019-04-07T10:04:49.183Z,43.34
2019-04-07T10:05:49.226Z,43.14
2019-04-07T10:06:50.000Z,43.85
2019-04-07T10:07:49.997Z,43.44
2019-04-07T10:08:49.785Z,43.85
2019-04-07T10:09:49.164Z,43.24
2019-04-07T10:10:49.435Z,42.92
2019-04-07T10:11:49.535Z,43.22
2019-04-07T10:12:49.060Z,43.42
2019-04-07T10:13:49.672Z,43.12
2019-04-07T10:14:49.841Z,41.91
2019-04-07T10:15:49.032Z,42.44
2019-04-07T10:16:49.515Z,43.12
2019-04-07T10:17:49.548Z,42.94
2019-04-07T10:18:49.225Z,43.14
2019-04-07T10:19:49.022Z,43.65
2019-04-07T10:20:49.200Z,42.72
2019-04-07T10:21:49.710Z,41.91
2019-04-07T10:22:49.146Z,41.31
2019-04-07T10:23:49.749Z,41.11
2019-04-07T10:24:49.526Z,41.41
2019-04-07T10:25:49.450Z,42.41
2019-04-07T10:26:49.893Z,42.52
2019-04-07T10:27:49.455Z,41.63
2019-04-07T10:28:51.569Z,42.61
2019-04-07T10:29:49.214Z,42.52
2019-04-07T10:30:48.823Z,42.01
2019-04-07T10:31:49.318Z,42.01
2019-04-07T10:32:48.865Z,42.52
2019-04-07T10:33:49.342Z,43.12
2019-04-07T10:34:48.820Z,41.91
2019-04-07T10:35:49.489Z,42.32
2019-04-07T10:36:48.659Z,42.21
2019-04-07T10:37:51.004Z,42.21
2019-04-07T10:38:49.590Z,41.61
2019-04-07T10:39:49.355Z,41.71
2019-04-07T10:40:49.098Z,40.30
2019-04-07T10:41:48.393Z,40.30
2019-04-07T10:42:49.124Z,40.50
2019-04-07T10:43:48.320Z,41.19
2019-04-07T10:44:49.201Z,41.29
2019-04-07T10:45:48.339Z,40.99
2019-04-07T10:46:48.194Z,41.41
2019-04-07T10:47:48.412Z,41.31
2019-04-07T10:48:49.721Z,41.20
2019-04-07T10:49:57.906Z,41.61
2019-04-07T10:50:48.184Z,41.91
2019-04-07T10:51:48.845Z,41.31
2019-04-07T10:52:48.150Z,41.42
2019-04-07T10:53:48.390Z,41.41
2019-04-07T10:54:49.157Z,41.41
2019-04-07T10:55:48.596Z,41.81
2019-04-07T10:56:48.515Z,41.61
2019-04-07T10:57:48.144Z,41.61
2019-04-07T10:58:48.319Z,41.61
2019-04-07T10:59:49.224Z,41.79
2019-04-07T11:00:50.833Z,41.69
2019-04-07T11:01:47.934Z,41.09
2019-04-07T11:02:48.115Z,40.06
2019-04-07T11:03:47.760Z,40.46
2019-04-07T11:04:48.427Z,39.76
2019-04-07T11:05:48.218Z,39.58
2019-04-07T11:06:48.314Z,40.18
2019-04-07T11:07:48.258Z,39.78
2019-04-07T11:08:47.778Z,39.88
2019-04-07T11:09:47.905Z,39.78
2019-04-07T11:10:48.470Z,40.08
2019-04-07T11:11:49.103Z,39.88
2019-04-07T11:12:48.003Z,40.18
2019-04-07T11:13:47.745Z,40.56
2019-04-07T11:14:47.681Z,40.06
2019-04-07T11:15:47.719Z,40.16
2019-04-07T11:16:47.558Z,39.56
2019-04-07T11:17:48.037Z,39.86
2019-04-07T11:18:49.062Z,39.64
2019-04-07T11:19:47.857Z,39.96
2019-04-07T11:20:47.505Z,39.84
2019-04-07T11:21:47.991Z,38.73
2019-04-07T11:22:48.877Z,39.43
2019-04-07T11:23:47.927Z,39.14
2019-04-07T11:24:48.057Z,38.65
2019-04-07T11:25:47.865Z,39.43
2019-04-07T11:26:48.534Z,39.43
2019-04-07T11:27:48.427Z,39.23
2019-04-07T11:28:48.106Z,38.64
2019-04-07T11:29:48.527Z,38.93
2019-04-07T11:30:50.881Z,38.93
2019-04-07T11:31:48.432Z,39.42
2019-04-07T11:32:48.205Z,38.81
2019-04-07T11:33:47.895Z,39.12
2019-04-07T11:34:48.658Z,38.79
2019-04-07T11:35:48.537Z,38.79
2019-04-07T11:36:48.581Z,39.60
2019-04-07T11:37:48.458Z,39.32
2019-04-07T11:38:48.368Z,39.42
2019-04-07T11:39:48.052Z,38.62
2019-04-07T11:40:50.826Z,39.62
2019-04-07T11:41:48.270Z,39.22
2019-04-07T11:42:56.146Z,38.09
2019-04-07T11:43:46.863Z,36.89
2019-04-07T11:44:46.836Z,36.90
2019-04-07T11:45:56.147Z,36.70
2019-04-07T11:46:46.658Z,36.80
2019-04-07T11:47:47.056Z,36.90
2019-04-07T11:48:46.845Z,37.01
2019-04-07T11:49:46.546Z,37.23
2019-04-07T11:50:47.188Z,35.39
2019-04-07T11:51:46.762Z,34.79
2019-04-07T11:52:47.224Z,36.60
2019-04-07T11:53:46.469Z,36.60
2019-04-07T11:54:46.426Z,36.80
2019-04-07T11:55:46.509Z,37.83
2019-04-07T11:56:47.211Z,37.10
2019-04-07T11:57:47.114Z,37.93
2019-04-07T11:58:46.359Z,37.43
2019-04-07T11:59:46.311Z,38.75
2019-04-07T12:00:46.356Z,37.52
2019-04-07T12:01:48.788Z,38.73
2019-04-07T12:02:46.944Z,39.14
2019-04-07T12:03:46.364Z,38.93
2019-04-07T12:04:46.861Z,38.73
2019-04-07T12:05:46.216Z,39.03
2019-04-07T12:06:48.089Z,38.11
2019-04-07T12:07:46.111Z,38.21
2019-04-07T12:08:46.757Z,37.69
2019-04-07T12:09:46.743Z,36.89
2019-04-07T12:10:56.341Z,36.58
2019-04-07T12:11:46.448Z,35.78
2019-04-07T12:12:45.984Z,36.99
2019-04-07T12:13:46.672Z,36.08
2019-04-07T12:14:50.025Z,36.99
2019-04-07T12:15:46.269Z,36.89
2019-04-07T12:16:46.042Z,36.99
2019-04-07T12:17:46.020Z,36.79
2019-04-07T12:18:50.196Z,36.58
2019-04-07T12:19:46.287Z,37.29
2019-04-07T12:20:46.195Z,36.77
2019-04-07T12:21:45.798Z,36.87
2019-04-07T12:22:48.012Z,36.77
2019-04-07T12:23:46.468Z,36.07
2019-04-07T12:24:45.704Z,36.16
2019-04-07T12:25:46.117Z,35.86
2019-04-07T12:26:46.289Z,35.86
2019-04-07T12:27:46.203Z,35.86
2019-04-07T12:28:47.570Z,35.97
2019-04-07T12:29:46.008Z,36.77
2019-04-07T12:30:45.635Z,36.75
2019-04-07T12:31:45.524Z,35.85
2019-04-07T12:32:45.528Z,36.15
2019-04-07T12:33:45.521Z,36.25
2019-04-07T12:34:47.891Z,36.85
2019-04-07T12:35:47.843Z,34.66
2019-04-07T12:36:45.408Z,35.26
2019-04-07T12:37:45.406Z,34.06
2019-04-07T12:38:46.120Z,34.94
2019-04-07T12:39:47.228Z,34.36
2019-04-07T12:40:45.334Z,34.96
2019-04-07T12:41:45.295Z,34.66
2019-04-07T12:42:45.377Z,35.06
2019-04-07T12:43:48.511Z,35.44
2019-04-07T12:44:46.409Z,34.06
2019-04-07T12:45:46.629Z,33.27
2019-04-07T12:46:45.376Z,33.27
2019-04-07T12:47:45.845Z,34.27
2019-04-07T12:48:45.124Z,34.17
2019-04-07T12:49:46.088Z,34.88
2019-04-07T12:50:48.985Z,33.07
2019-04-07T12:51:45.068Z,33.77